sensor_id;sensor_type;location;lat;lon;timestamp;P1;durP1;ratioP1;P2;durP2;ratioP2
36443;SDS011;24692;45.642;13.806;2023-02-01T00:01:36;26.27;;;12.20;;
36443;SDS011;24692;45.642;13.806;2023-02-01T00:04:02;26.07;;;11.60;;
36443;SDS011;24692;45.642;13.806;2023-02-01T00:06:27;24.73;;;11.57;;
36443;SDS011;24692;45.642;13.806;2023-02-01T00:08:53;22.73;;;11.70;;
36443;SDS011;24692;45.642;13.806;2023-02-01T00:11:19;26.73;;;12.03;;
36443;SDS011;24692;45.642;13.806;2023-02-01T00:13:46;24.33;;;11.10;;
36443;SDS011;24692;45.642;13.806;2023-02-01T00:16:13;22.97;;;10.67;;
36443;SDS011;24692;45.642;13.806;2023-02-01T00:18:41;22.33;;;9.93;;
36443;SDS011;24692;45.642;13.806;2023-02-01T00:21:07;27.17;;;11.20;;
36443;SDS011;24692;45.642;13.806;2023-02-01T00:23:35;20.97;;;11.10;;
36443;SDS011;24692;45.642;13.806;2023-02-01T00:26:02;20.97;;;10.93;;
36443;SDS011;24692;45.642;13.806;2023-02-01T00:28:28;23.47;;;11.27;;
36443;SDS011;24692;45.642;13.806;2023-02-01T00:30:58;27.53;;;11.50;;
36443;SDS011;24692;45.642;13.806;2023-02-01T00:33:28;21.73;;;11.07;;
36443;SDS011;24692;45.642;13.806;2023-02-01T00:35:58;25.30;;;11.67;;
36443;SDS011;24692;45.642;13.806;2023-02-01T00:38:26;25.83;;;11.10;;
36443;SDS011;24692;45.642;13.806;2023-02-01T00:40:52;24.27;;;11.03;;
36443;SDS011;24692;45.642;13.806;2023-02-01T00:43:18;25.10;;;10.97;;
36443;SDS011;24692;45.642;13.806;2023-02-01T00:45:45;23.63;;;10.63;;
36443;SDS011;24692;45.642;13.806;2023-02-01T00:48:11;27.90;;;11.43;;
36443;SDS011;24692;45.642;13.806;2023-02-01T00:50:41;25.77;;;11.47;;
36443;SDS011;24692;45.642;13.806;2023-02-01T00:53:08;23.80;;;10.37;;
36443;SDS011;24692;45.642;13.806;2023-02-01T00:55:34;24.87;;;11.43;;
36443;SDS011;24692;45.642;13.806;2023-02-01T00:58:00;26.00;;;11.30;;
36443;SDS011;24692;45.642;13.806;2023-02-01T01:00:26;25.53;;;11.20;;
36443;SDS011;24692;45.642;13.806;2023-02-01T01:02:51;23.90;;;10.53;;
36443;SDS011;24692;45.642;13.806;2023-02-01T01:05:18;22.60;;;10.90;;
36443;SDS011;24692;45.642;13.806;2023-02-01T01:07:43;24.63;;;10.67;;
36443;SDS011;24692;45.642;13.806;2023-02-01T01:10:09;24.50;;;11.07;;
36443;SDS011;24692;45.642;13.806;2023-02-01T01:12:35;23.40;;;10.57;;
36443;SDS011;24692;45.642;13.806;2023-02-01T01:15:01;26.40;;;10.07;;
36443;SDS011;24692;45.642;13.806;2023-02-01T01:17:27;20.10;;;9.67;;
36443;SDS011;24692;45.642;13.806;2023-02-01T01:19:53;21.37;;;9.93;;
36443;SDS011;24692;45.642;13.806;2023-02-01T01:22:18;21.77;;;10.03;;
36443;SDS011;24692;45.642;13.806;2023-02-01T01:24:44;21.20;;;9.70;;
36443;SDS011;24692;45.642;13.806;2023-02-01T01:27:09;21.03;;;9.40;;
36443;SDS011;24692;45.642;13.806;2023-02-01T01:29:35;21.30;;;9.30;;
36443;SDS011;24692;45.642;13.806;2023-02-01T01:32:01;20.97;;;9.13;;
36443;SDS011;24692;45.642;13.806;2023-02-01T01:34:27;19.53;;;8.87;;
36443;SDS011;24692;45.642;13.806;2023-02-01T01:36:52;19.80;;;8.83;;
36443;SDS011;24692;45.642;13.806;2023-02-01T01:39:18;21.13;;;8.47;;
36443;SDS011;24692;45.642;13.806;2023-02-01T01:41:44;17.77;;;8.33;;
36443;SDS011;24692;45.642;13.806;2023-02-01T01:47:20;19.07;;;8.87;;
36443;SDS011;24692;45.642;13.806;2023-02-01T01:49:45;16.50;;;7.83;;
36443;SDS011;24692;45.642;13.806;2023-02-01T01:52:11;21.67;;;8.80;;
36443;SDS011;24692;45.642;13.806;2023-02-01T01:54:38;19.50;;;8.53;;
36443;SDS011;24692;45.642;13.806;2023-02-01T01:57:08;22.30;;;8.73;;
36443;SDS011;24692;45.642;13.806;2023-02-01T02:00:14;20.37;;;7.83;;
36443;SDS011;24692;45.642;13.806;2023-02-01T02:02:45;17.37;;;8.17;;
36443;SDS011;24692;45.642;13.806;2023-02-01T02:05:12;18.00;;;7.83;;
36443;SDS011;24692;45.642;13.806;2023-02-01T02:07:40;16.53;;;7.80;;
36443;SDS011;24692;45.642;13.806;2023-02-01T02:10:11;20.20;;;8.80;;
36443;SDS011;24692;45.642;13.806;2023-02-01T02:12:39;20.77;;;8.57;;
36443;SDS011;24692;45.642;13.806;2023-02-01T02:15:07;20.90;;;8.67;;
36443;SDS011;24692;45.642;13.806;2023-02-01T02:34:28;20.40;;;8.47;;
36443;SDS011;24692;45.642;13.806;2023-02-01T02:37:04;21.97;;;8.53;;
36443;SDS011;24692;45.642;13.806;2023-02-01T02:40:04;19.93;;;8.77;;
36443;SDS011;24692;45.642;13.806;2023-02-01T02:42:39;18.93;;;8.40;;
36443;SDS011;24692;45.642;13.806;2023-02-01T02:45:29;21.23;;;8.33;;
36443;SDS011;24692;45.642;13.806;2023-02-01T02:48:35;24.90;;;9.47;;
36443;SDS011;24692;45.642;13.806;2023-02-01T02:51:45;20.30;;;8.20;;
36443;SDS011;24692;45.642;13.806;2023-02-01T02:54:42;20.80;;;8.43;;
36443;SDS011;24692;45.642;13.806;2023-02-01T03:00:31;21.60;;;9.43;;
36443;SDS011;24692;45.642;13.806;2023-02-01T03:03:16;23.87;;;10.73;;
36443;SDS011;24692;45.642;13.806;2023-02-01T03:06:01;24.27;;;10.03;;
36443;SDS011;24692;45.642;13.806;2023-02-01T03:08:30;27.33;;;11.07;;
36443;SDS011;24692;45.642;13.806;2023-02-01T03:24:07;29.70;;;14.40;;
36443;SDS011;24692;45.642;13.806;2023-02-01T03:26:51;29.07;;;14.33;;
36443;SDS011;24692;45.642;13.806;2023-02-01T03:29:27;32.93;;;14.37;;
36443;SDS011;24692;45.642;13.806;2023-02-01T03:31:58;30.13;;;13.73;;
36443;SDS011;24692;45.642;13.806;2023-02-01T03:34:24;31.83;;;14.83;;
36443;SDS011;24692;45.642;13.806;2023-02-01T03:36:56;28.67;;;14.07;;
36443;SDS011;24692;45.642;13.806;2023-02-01T03:42:16;32.47;;;15.03;;
36443;SDS011;24692;45.642;13.806;2023-02-01T03:45:05;29.67;;;14.30;;
36443;SDS011;24692;45.642;13.806;2023-02-01T03:47:36;28.87;;;13.90;;
36443;SDS011;24692;45.642;13.806;2023-02-01T03:50:16;28.97;;;14.40;;
36443;SDS011;24692;45.642;13.806;2023-02-01T03:52:45;28.43;;;13.73;;
36443;SDS011;24692;45.642;13.806;2023-02-01T03:55:19;27.57;;;13.70;;
36443;SDS011;24692;45.642;13.806;2023-02-01T03:57:51;30.20;;;14.30;;
36443;SDS011;24692;45.642;13.806;2023-02-01T04:00:23;31.53;;;14.97;;
36443;SDS011;24692;45.642;13.806;2023-02-01T04:02:50;35.90;;;17.50;;
36443;SDS011;24692;45.642;13.806;2023-02-01T04:05:16;33.47;;;15.63;;
36443;SDS011;24692;45.642;13.806;2023-02-01T04:07:42;36.60;;;16.70;;
36443;SDS011;24692;45.642;13.806;2023-02-01T04:10:08;33.20;;;16.80;;
36443;SDS011;24692;45.642;13.806;2023-02-01T04:12:35;36.83;;;16.80;;
36443;SDS011;24692;45.642;13.806;2023-02-01T04:15:00;35.63;;;17.80;;
36443;SDS011;24692;45.642;13.806;2023-02-01T04:17:26;38.30;;;18.93;;
36443;SDS011;24692;45.642;13.806;2023-02-01T04:19:52;36.60;;;18.57;;
36443;SDS011;24692;45.642;13.806;2023-02-01T04:22:17;35.70;;;17.90;;
36443;SDS011;24692;45.642;13.806;2023-02-01T04:24:43;39.33;;;17.87;;
36443;SDS011;24692;45.642;13.806;2023-02-01T04:27:09;37.23;;;20.07;;
36443;SDS011;24692;45.642;13.806;2023-02-01T04:29:34;37.07;;;19.43;;
36443;SDS011;24692;45.642;13.806;2023-02-01T04:32:00;38.47;;;19.87;;
36443;SDS011;24692;45.642;13.806;2023-02-01T04:34:25;42.20;;;20.90;;
36443;SDS011;24692;45.642;13.806;2023-02-01T04:36:51;43.00;;;20.63;;
36443;SDS011;24692;45.642;13.806;2023-02-01T04:39:17;38.90;;;19.70;;
36443;SDS011;24692;45.642;13.806;2023-02-01T04:41:43;40.90;;;21.83;;
36443;SDS011;24692;45.642;13.806;2023-02-01T04:44:16;39.93;;;19.73;;
36443;SDS011;24692;45.642;13.806;2023-02-01T04:46:43;43.47;;;21.47;;
36443;SDS011;24692;45.642;13.806;2023-02-01T04:49:10;42.37;;;21.87;;
36443;SDS011;24692;45.642;13.806;2023-02-01T04:51:36;41.13;;;20.67;;
36443;SDS011;24692;45.642;13.806;2023-02-01T04:54:02;41.57;;;21.53;;
36443;SDS011;24692;45.642;13.806;2023-02-01T04:56:28;39.37;;;20.83;;
36443;SDS011;24692;45.642;13.806;2023-02-01T04:58:53;41.20;;;20.73;;
36443;SDS011;24692;45.642;13.806;2023-02-01T05:01:20;40.83;;;22.43;;
36443;SDS011;24692;45.642;13.806;2023-02-01T05:03:45;46.17;;;22.77;;
36443;SDS011;24692;45.642;13.806;2023-02-01T05:06:11;47.97;;;23.63;;
36443;SDS011;24692;45.642;13.806;2023-02-01T05:08:37;42.37;;;23.03;;
36443;SDS011;24692;45.642;13.806;2023-02-01T05:11:02;44.13;;;23.57;;
36443;SDS011;24692;45.642;13.806;2023-02-01T05:13:28;47.93;;;23.97;;
36443;SDS011;24692;45.642;13.806;2023-02-01T05:16:13;50.67;;;23.20;;
36443;SDS011;24692;45.642;13.806;2023-02-01T05:18:39;44.07;;;24.13;;
36443;SDS011;24692;45.642;13.806;2023-02-01T05:21:04;52.67;;;25.07;;
36443;SDS011;24692;45.642;13.806;2023-02-01T05:23:30;46.97;;;25.37;;
36443;SDS011;24692;45.642;13.806;2023-02-01T05:25:59;47.30;;;24.63;;
36443;SDS011;24692;45.642;13.806;2023-02-01T05:28:25;48.70;;;24.57;;
36443;SDS011;24692;45.642;13.806;2023-02-01T05:30:52;46.67;;;25.40;;
36443;SDS011;24692;45.642;13.806;2023-02-01T05:33:17;49.27;;;26.07;;
36443;SDS011;24692;45.642;13.806;2023-02-01T05:35:43;43.97;;;25.10;;
36443;SDS011;24692;45.642;13.806;2023-02-01T05:38:08;51.23;;;25.77;;
36443;SDS011;24692;45.642;13.806;2023-02-01T05:40:34;46.63;;;25.20;;
36443;SDS011;24692;45.642;13.806;2023-02-01T05:43:00;46.80;;;24.10;;
36443;SDS011;24692;45.642;13.806;2023-02-01T05:45:25;49.87;;;27.30;;
36443;SDS011;24692;45.642;13.806;2023-02-01T05:47:51;50.53;;;26.90;;
36443;SDS011;24692;45.642;13.806;2023-02-01T05:50:16;49.23;;;25.93;;
36443;SDS011;24692;45.642;13.806;2023-02-01T05:52:42;47.00;;;25.93;;
36443;SDS011;24692;45.642;13.806;2023-02-01T05:55:08;48.10;;;24.97;;
36443;SDS011;24692;45.642;13.806;2023-02-01T05:57:34;48.37;;;27.63;;
36443;SDS011;24692;45.642;13.806;2023-02-01T05:59:59;48.77;;;26.83;;
36443;SDS011;24692;45.642;13.806;2023-02-01T06:02:25;51.77;;;27.10;;
36443;SDS011;24692;45.642;13.806;2023-02-01T06:04:51;47.47;;;25.23;;
36443;SDS011;24692;45.642;13.806;2023-02-01T06:07:17;58.50;;;27.27;;
36443;SDS011;24692;45.642;13.806;2023-02-01T06:09:42;47.83;;;25.53;;
36443;SDS011;24692;45.642;13.806;2023-02-01T06:12:08;52.67;;;27.37;;
36443;SDS011;24692;45.642;13.806;2023-02-01T06:14:34;56.47;;;27.80;;
36443;SDS011;24692;45.642;13.806;2023-02-01T06:16:59;49.17;;;27.00;;
36443;SDS011;24692;45.642;13.806;2023-02-01T06:19:25;50.93;;;26.77;;
36443;SDS011;24692;45.642;13.806;2023-02-01T06:21:51;52.67;;;30.37;;
36443;SDS011;24692;45.642;13.806;2023-02-01T06:24:16;54.00;;;28.13;;
36443;SDS011;24692;45.642;13.806;2023-02-01T06:26:42;52.73;;;29.40;;
36443;SDS011;24692;45.642;13.806;2023-02-01T06:29:11;54.53;;;27.80;;
36443;SDS011;24692;45.642;13.806;2023-02-01T06:31:37;53.33;;;26.63;;
36443;SDS011;24692;45.642;13.806;2023-02-01T06:34:03;52.80;;;28.27;;
36443;SDS011;24692;45.642;13.806;2023-02-01T06:36:29;48.43;;;25.83;;
36443;SDS011;24692;45.642;13.806;2023-02-01T06:38:55;55.83;;;28.30;;
36443;SDS011;24692;45.642;13.806;2023-02-01T06:41:24;57.17;;;27.60;;
36443;SDS011;24692;45.642;13.806;2023-02-01T06:43:50;53.30;;;27.60;;
36443;SDS011;24692;45.642;13.806;2023-02-01T06:46:16;52.90;;;25.90;;
36443;SDS011;24692;45.642;13.806;2023-02-01T06:48:42;48.20;;;26.10;;
36443;SDS011;24692;45.642;13.806;2023-02-01T06:51:26;50.07;;;26.87;;
36443;SDS011;24692;45.642;13.806;2023-02-01T06:53:54;44.70;;;24.13;;
36443;SDS011;24692;45.642;13.806;2023-02-01T06:56:20;48.80;;;26.20;;
36443;SDS011;24692;45.642;13.806;2023-02-01T06:58:46;27.90;;;16.53;;
36443;SDS011;24692;45.642;13.806;2023-02-01T07:01:12;24.97;;;16.10;;
36443;SDS011;24692;45.642;13.806;2023-02-01T07:03:39;30.50;;;17.47;;
36443;SDS011;24692;45.642;13.806;2023-02-01T07:06:05;28.73;;;16.50;;
36443;SDS011;24692;45.642;13.806;2023-02-01T07:08:33;28.83;;;14.57;;
36443;SDS011;24692;45.642;13.806;2023-02-01T07:11:07;23.77;;;14.87;;
36443;SDS011;24692;45.642;13.806;2023-02-01T07:13:35;24.20;;;15.53;;
36443;SDS011;24692;45.642;13.806;2023-02-01T07:16:04;28.87;;;14.27;;
36443;SDS011;24692;45.642;13.806;2023-02-01T07:18:32;20.23;;;13.57;;
36443;SDS011;24692;45.642;13.806;2023-02-01T07:20:58;20.70;;;14.33;;
36443;SDS011;24692;45.642;13.806;2023-02-01T07:23:24;26.47;;;13.83;;
36443;SDS011;24692;45.642;13.806;2023-02-01T07:25:54;26.25;;;13.40;;
36443;SDS011;24692;45.642;13.806;2023-02-01T07:28:25;20.38;;;13.45;;
36443;SDS011;24692;45.642;13.806;2023-02-01T07:30:53;24.45;;;12.73;;
36443;SDS011;24692;45.642;13.806;2023-02-01T07:33:22;22.17;;;13.85;;
36443;SDS011;24692;45.642;13.806;2023-02-01T07:35:49;26.23;;;13.73;;
36443;SDS011;24692;45.642;13.806;2023-02-01T07:38:16;28.85;;;18.50;;
36443;SDS011;24692;45.642;13.806;2023-02-01T07:40:42;27.03;;;15.23;;
36443;SDS011;24692;45.642;13.806;2023-02-01T07:43:08;29.63;;;18.40;;
36443;SDS011;24692;45.642;13.806;2023-02-01T07:45:34;34.53;;;20.50;;
36443;SDS011;24692;45.642;13.806;2023-02-01T07:48:01;32.57;;;20.33;;
36443;SDS011;24692;45.642;13.806;2023-02-01T07:50:27;38.17;;;20.10;;
36443;SDS011;24692;45.642;13.806;2023-02-01T07:52:53;32.07;;;20.50;;
36443;SDS011;24692;45.642;13.806;2023-02-01T07:55:19;35.00;;;21.23;;
36443;SDS011;24692;45.642;13.806;2023-02-01T07:57:45;35.03;;;20.50;;
36443;SDS011;24692;45.642;13.806;2023-02-01T08:00:11;36.30;;;21.13;;
36443;SDS011;24692;45.642;13.806;2023-02-01T08:02:59;37.10;;;21.50;;
36443;SDS011;24692;45.642;13.806;2023-02-01T08:05:25;38.17;;;21.33;;
36443;SDS011;24692;45.642;13.806;2023-02-01T08:07:51;38.43;;;22.07;;
36443;SDS011;24692;45.642;13.806;2023-02-01T08:10:17;44.17;;;22.33;;
36443;SDS011;24692;45.642;13.806;2023-02-01T08:12:43;35.03;;;20.53;;
36443;SDS011;24692;45.642;13.806;2023-02-01T08:15:16;38.80;;;20.93;;
36443;SDS011;24692;45.642;13.806;2023-02-01T08:17:49;38.17;;;21.37;;
36443;SDS011;24692;45.642;13.806;2023-02-01T08:20:16;37.93;;;20.47;;
36443;SDS011;24692;45.642;13.806;2023-02-01T08:22:42;36.43;;;19.83;;
36443;SDS011;24692;45.642;13.806;2023-02-01T08:25:08;32.60;;;19.17;;
36443;SDS011;24692;45.642;13.806;2023-02-01T08:27:34;34.07;;;18.70;;
36443;SDS011;24692;45.642;13.806;2023-02-01T08:30:00;32.67;;;19.17;;
36443;SDS011;24692;45.642;13.806;2023-02-01T08:32:26;30.63;;;18.57;;
36443;SDS011;24692;45.642;13.806;2023-02-01T08:34:53;30.50;;;18.33;;
36443;SDS011;24692;45.642;13.806;2023-02-01T08:37:18;26.73;;;17.73;;
36443;SDS011;24692;45.642;13.806;2023-02-01T08:39:44;29.53;;;17.60;;
36443;SDS011;24692;45.642;13.806;2023-02-01T08:42:11;27.37;;;18.13;;
36443;SDS011;24692;45.642;13.806;2023-02-01T08:44:55;27.80;;;18.50;;
36443;SDS011;24692;45.642;13.806;2023-02-01T08:47:21;29.20;;;19.27;;
36443;SDS011;24692;45.642;13.806;2023-02-01T08:49:47;29.17;;;19.53;;
36443;SDS011;24692;45.642;13.806;2023-02-01T08:52:14;33.17;;;17.73;;
36443;SDS011;24692;45.642;13.806;2023-02-01T08:54:41;32.97;;;21.10;;
36443;SDS011;24692;45.642;13.806;2023-02-01T08:57:11;30.87;;;20.30;;
36443;SDS011;24692;45.642;13.806;2023-02-01T08:59:37;30.67;;;19.83;;
36443;SDS011;24692;45.642;13.806;2023-02-01T09:02:02;30.63;;;20.07;;
36443;SDS011;24692;45.642;13.806;2023-02-01T09:04:28;31.90;;;19.20;;
36443;SDS011;24692;45.642;13.806;2023-02-01T09:06:54;33.50;;;21.00;;
36443;SDS011;24692;45.642;13.806;2023-02-01T09:09:21;35.40;;;20.40;;
36443;SDS011;24692;45.642;13.806;2023-02-01T09:11:47;32.93;;;20.53;;
36443;SDS011;24692;45.642;13.806;2023-02-01T09:14:15;34.77;;;21.37;;
36443;SDS011;24692;45.642;13.806;2023-02-01T09:16:41;35.30;;;20.93;;
36443;SDS011;24692;45.642;13.806;2023-02-01T09:19:07;33.57;;;20.83;;
36443;SDS011;24692;45.642;13.806;2023-02-01T09:21:33;33.10;;;20.70;;
36443;SDS011;24692;45.642;13.806;2023-02-01T09:23:58;32.73;;;20.73;;
36443;SDS011;24692;45.642;13.806;2023-02-01T09:26:24;32.53;;;20.67;;
36443;SDS011;24692;45.642;13.806;2023-02-01T09:28:50;34.20;;;20.00;;
36443;SDS011;24692;45.642;13.806;2023-02-01T09:31:16;33.70;;;19.63;;
36443;SDS011;24692;45.642;13.806;2023-02-01T09:33:42;32.77;;;20.50;;
36443;SDS011;24692;45.642;13.806;2023-02-01T09:36:07;38.13;;;21.17;;
36443;SDS011;24692;45.642;13.806;2023-02-01T09:38:33;33.20;;;18.30;;
36443;SDS011;24692;45.642;13.806;2023-02-01T09:40:59;32.97;;;19.20;;
36443;SDS011;24692;45.642;13.806;2023-02-01T09:48:38;29.83;;;17.73;;
36443;SDS011;24692;45.642;13.806;2023-02-01T09:51:11;26.83;;;17.37;;
36443;SDS011;24692;45.642;13.806;2023-02-01T09:53:42;27.53;;;17.43;;
36443;SDS011;24692;45.642;13.806;2023-02-01T09:56:21;28.27;;;18.00;;
36443;SDS011;24692;45.642;13.806;2023-02-01T10:01:47;30.17;;;17.33;;
36443;SDS011;24692;45.642;13.806;2023-02-01T10:04:13;35.97;;;19.23;;
36443;SDS011;24692;45.642;13.806;2023-02-01T10:09:15;29.43;;;18.07;;
36443;SDS011;24692;45.642;13.806;2023-02-01T10:14:46;32.17;;;17.83;;
36443;SDS011;24692;45.642;13.806;2023-02-01T10:28:46;28.90;;;18.53;;
36443;SDS011;24692;45.642;13.806;2023-02-01T10:31:23;29.83;;;18.00;;
36443;SDS011;24692;45.642;13.806;2023-02-01T10:34:04;37.00;;;21.10;;
36443;SDS011;24692;45.642;13.806;2023-02-01T10:36:59;33.87;;;20.00;;
36443;SDS011;24692;45.642;13.806;2023-02-01T10:39:29;35.17;;;21.53;;
36443;SDS011;24692;45.642;13.806;2023-02-01T10:41:55;34.40;;;20.10;;
36443;SDS011;24692;45.642;13.806;2023-02-01T10:44:23;36.43;;;21.13;;
36443;SDS011;24692;45.642;13.806;2023-02-01T10:46:52;38.37;;;21.83;;
36443;SDS011;24692;45.642;13.806;2023-02-01T10:49:20;35.03;;;21.27;;
36443;SDS011;24692;45.642;13.806;2023-02-01T10:51:59;33.90;;;21.47;;
36443;SDS011;24692;45.642;13.806;2023-02-01T10:54:37;35.20;;;21.73;;
36443;SDS011;24692;45.642;13.806;2023-02-01T10:57:11;41.17;;;23.93;;
36443;SDS011;24692;45.642;13.806;2023-02-01T10:59:50;45.83;;;26.33;;
36443;SDS011;24692;45.642;13.806;2023-02-01T11:02:25;44.63;;;25.50;;
36443;SDS011;24692;45.642;13.806;2023-02-01T11:05:01;48.10;;;28.10;;
36443;SDS011;24692;45.642;13.806;2023-02-01T11:07:30;42.53;;;25.67;;
36443;SDS011;24692;45.642;13.806;2023-02-01T11:09:57;44.53;;;27.50;;
36443;SDS011;24692;45.642;13.806;2023-02-01T11:12:25;43.80;;;25.23;;
36443;SDS011;24692;45.642;13.806;2023-02-01T11:14:57;42.00;;;26.03;;
36443;SDS011;24692;45.642;13.806;2023-02-01T11:17:33;47.37;;;27.97;;
36443;SDS011;24692;45.642;13.806;2023-02-01T11:20:03;44.10;;;26.10;;
36443;SDS011;24692;45.642;13.806;2023-02-01T11:22:31;49.30;;;28.90;;
36443;SDS011;24692;45.642;13.806;2023-02-01T11:24:58;45.40;;;27.87;;
36443;SDS011;24692;45.642;13.806;2023-02-01T11:27:26;45.77;;;28.17;;
36443;SDS011;24692;45.642;13.806;2023-02-01T11:29:53;52.20;;;30.10;;
36443;SDS011;24692;45.642;13.806;2023-02-01T11:32:25;47.73;;;29.10;;
36443;SDS011;24692;45.642;13.806;2023-02-01T11:35:00;54.70;;;31.40;;
36443;SDS011;24692;45.642;13.806;2023-02-01T11:37:36;51.27;;;30.60;;
36443;SDS011;24692;45.642;13.806;2023-02-01T11:42:58;55.03;;;33.23;;
36443;SDS011;24692;45.642;13.806;2023-02-01T11:47:51;54.93;;;33.83;;
36443;SDS011;24692;45.642;13.806;2023-02-01T11:58:30;63.60;;;37.33;;
36443;SDS011;24692;45.642;13.806;2023-02-01T12:01:12;60.20;;;35.03;;
36443;SDS011;24692;45.642;13.806;2023-02-01T12:06:51;64.10;;;38.30;;
36443;SDS011;24692;45.642;13.806;2023-02-01T12:09:32;63.73;;;37.00;;
36443;SDS011;24692;45.642;13.806;2023-02-01T12:14:56;63.47;;;38.63;;
36443;SDS011;24692;45.642;13.806;2023-02-01T12:17:38;60.23;;;34.27;;
36443;SDS011;24692;45.642;13.806;2023-02-01T12:23:04;65.00;;;41.03;;
36443;SDS011;24692;45.642;13.806;2023-02-01T12:28:22;68.47;;;43.63;;
36443;SDS011;24692;45.642;13.806;2023-02-01T12:42:32;74.17;;;43.33;;
36443;SDS011;24692;45.642;13.806;2023-02-01T12:45:25;71.80;;;44.73;;
36443;SDS011;24692;45.642;13.806;2023-02-01T12:47:59;77.10;;;43.03;;
36443;SDS011;24692;45.642;13.806;2023-02-01T12:50:31;68.30;;;42.43;;
36443;SDS011;24692;45.642;13.806;2023-02-01T12:53:30;72.17;;;43.70;;
36443;SDS011;24692;45.642;13.806;2023-02-01T12:55:58;67.50;;;40.90;;
36443;SDS011;24692;45.642;13.806;2023-02-01T12:58:32;63.90;;;40.67;;
36443;SDS011;24692;45.642;13.806;2023-02-01T13:01:06;72.10;;;43.87;;
36443;SDS011;24692;45.642;13.806;2023-02-01T13:06:53;70.63;;;43.40;;
36443;SDS011;24692;45.642;13.806;2023-02-01T13:09:44;64.13;;;41.07;;
36443;SDS011;24692;45.642;13.806;2023-02-01T13:12:20;66.87;;;41.67;;
36443;SDS011;24692;45.642;13.806;2023-02-01T13:17:27;67.63;;;40.50;;
36443;SDS011;24692;45.642;13.806;2023-02-01T13:19:57;61.67;;;39.77;;
36443;SDS011;24692;45.642;13.806;2023-02-01T13:27:38;75.67;;;47.07;;
36443;SDS011;24692;45.642;13.806;2023-02-01T13:32:53;81.43;;;49.20;;
36443;SDS011;24692;45.642;13.806;2023-02-01T13:43:52;84.53;;;52.27;;
36443;SDS011;24692;45.642;13.806;2023-02-01T13:46:28;89.77;;;53.17;;
36443;SDS011;24692;45.642;13.806;2023-02-01T13:48:56;88.43;;;52.87;;
36443;SDS011;24692;45.642;13.806;2023-02-01T13:51:42;92.80;;;56.60;;
36443;SDS011;24692;45.642;13.806;2023-02-01T13:56:57;102.73;;;59.97;;
36443;SDS011;24692;45.642;13.806;2023-02-01T14:05:54;107.90;;;62.00;;
36443;SDS011;24692;45.642;13.806;2023-02-01T14:34:11;125.53;;;73.57;;
36443;SDS011;24692;45.642;13.806;2023-02-01T14:36:56;123.03;;;71.13;;
36443;SDS011;24692;45.642;13.806;2023-02-01T14:41:54;147.00;;;86.83;;
36443;SDS011;24692;45.642;13.806;2023-02-01T14:44:26;144.23;;;87.23;;
36443;SDS011;24692;45.642;13.806;2023-02-01T14:47:04;152.00;;;88.80;;
36443;SDS011;24692;45.642;13.806;2023-02-01T14:49:47;153.57;;;92.73;;
36443;SDS011;24692;45.642;13.806;2023-02-01T14:57:59;147.90;;;88.70;;
36443;SDS011;24692;45.642;13.806;2023-02-01T15:00:30;149.40;;;92.47;;
36443;SDS011;24692;45.642;13.806;2023-02-01T15:03:01;150.17;;;91.27;;
36443;SDS011;24692;45.642;13.806;2023-02-01T15:05:56;153.00;;;89.80;;
36443;SDS011;24692;45.642;13.806;2023-02-01T15:08:27;150.63;;;89.70;;
36443;SDS011;24692;45.642;13.806;2023-02-01T15:10:56;145.73;;;88.30;;
36443;SDS011;24692;45.642;13.806;2023-02-01T15:13:26;143.10;;;87.77;;
36443;SDS011;24692;45.642;13.806;2023-02-01T15:16:09;149.60;;;89.43;;
36443;SDS011;24692;45.642;13.806;2023-02-01T15:18:36;144.90;;;88.13;;
36443;SDS011;24692;45.642;13.806;2023-02-01T15:21:03;149.63;;;90.80;;
36443;SDS011;24692;45.642;13.806;2023-02-01T15:23:31;143.97;;;87.63;;
36443;SDS011;24692;45.642;13.806;2023-02-01T15:25:57;149.27;;;92.17;;
36443;SDS011;24692;45.642;13.806;2023-02-01T15:28:24;152.87;;;91.10;;
36443;SDS011;24692;45.642;13.806;2023-02-01T15:31:01;152.27;;;92.00;;
36443;SDS011;24692;45.642;13.806;2023-02-01T15:33:29;156.10;;;91.23;;
36443;SDS011;24692;45.642;13.806;2023-02-01T15:38:38;152.77;;;95.07;;
36443;SDS011;24692;45.642;13.806;2023-02-01T15:41:13;161.23;;;94.13;;
36443;SDS011;24692;45.642;13.806;2023-02-01T15:46:24;147.70;;;90.50;;
36443;SDS011;24692;45.642;13.806;2023-02-01T15:48:56;143.93;;;89.10;;
36443;SDS011;24692;45.642;13.806;2023-02-01T15:51:23;150.00;;;89.93;;
36443;SDS011;24692;45.642;13.806;2023-02-01T15:53:53;145.23;;;88.50;;
36443;SDS011;24692;45.642;13.806;2023-02-01T15:56:24;149.83;;;91.30;;
36443;SDS011;24692;45.642;13.806;2023-02-01T15:58:53;145.97;;;90.33;;
36443;SDS011;24692;45.642;13.806;2023-02-01T16:01:21;144.90;;;91.57;;
36443;SDS011;24692;45.642;13.806;2023-02-01T16:03:47;149.47;;;91.77;;
36443;SDS011;24692;45.642;13.806;2023-02-01T16:08:49;147.50;;;88.27;;
36443;SDS011;24692;45.642;13.806;2023-02-01T16:11:27;142.90;;;88.07;;
36443;SDS011;24692;45.642;13.806;2023-02-01T16:14:00;141.50;;;88.47;;
36443;SDS011;24692;45.642;13.806;2023-02-01T16:16:27;141.83;;;87.03;;
36443;SDS011;24692;45.642;13.806;2023-02-01T16:18:53;151.10;;;91.60;;
36443;SDS011;24692;45.642;13.806;2023-02-01T16:21:19;141.60;;;89.13;;
36443;SDS011;24692;45.642;13.806;2023-02-01T16:23:51;144.73;;;89.13;;
36443;SDS011;24692;45.642;13.806;2023-02-01T16:26:18;144.13;;;86.13;;
36443;SDS011;24692;45.642;13.806;2023-02-01T16:28:44;155.53;;;94.33;;
36443;SDS011;24692;45.642;13.806;2023-02-01T16:31:13;152.03;;;91.90;;
36443;SDS011;24692;45.642;13.806;2023-02-01T16:33:46;145.07;;;87.97;;
36443;SDS011;24692;45.642;13.806;2023-02-01T16:36:14;145.30;;;87.53;;
36443;SDS011;24692;45.642;13.806;2023-02-01T16:38:41;148.40;;;88.77;;
36443;SDS011;24692;45.642;13.806;2023-02-01T16:41:06;137.73;;;81.40;;
36443;SDS011;24692;45.642;13.806;2023-02-01T16:43:34;144.63;;;85.57;;
36443;SDS011;24692;45.642;13.806;2023-02-01T16:46:00;143.80;;;86.63;;
36443;SDS011;24692;45.642;13.806;2023-02-01T16:48:30;141.97;;;88.40;;
36443;SDS011;24692;45.642;13.806;2023-02-01T16:51:00;136.07;;;84.03;;
36443;SDS011;24692;45.642;13.806;2023-02-01T16:53:28;137.40;;;78.37;;
36443;SDS011;24692;45.642;13.806;2023-02-01T16:55:55;127.13;;;76.23;;
36443;SDS011;24692;45.642;13.806;2023-02-01T16:58:22;130.23;;;76.47;;
36443;SDS011;24692;45.642;13.806;2023-02-01T17:00:49;135.17;;;82.77;;
36443;SDS011;24692;45.642;13.806;2023-02-01T17:03:18;136.23;;;77.63;;
36443;SDS011;24692;45.642;13.806;2023-02-01T17:05:48;131.90;;;81.57;;
36443;SDS011;24692;45.642;13.806;2023-02-01T17:08:23;138.13;;;78.77;;
36443;SDS011;24692;45.642;13.806;2023-02-01T17:10:57;133.37;;;81.70;;
36443;SDS011;24692;45.642;13.806;2023-02-01T17:13:23;134.43;;;77.60;;
36443;SDS011;24692;45.642;13.806;2023-02-01T17:15:51;131.60;;;77.10;;
36443;SDS011;24692;45.642;13.806;2023-02-01T17:18:30;130.07;;;77.47;;